メインページ
METAR-TAF:

METAR-TAF

空港 :

クウェート国際空港

クウェート, クウェート

緯度: 29-13N, 経度: 047-59E, 海抜: 55m

現時点の気象観測

当レポートは53分前の03:00(UTC)に作成
南/南東の風 24kt
気温 22°C
湿度 78%
気圧 1000 hPa
視程: 1800m
高度4000ftの雲は散在している
高度8000ftの千切れ雲あり
(強い) , 広範な塵

METAR: OKBK 250300Z 16024KT 1800 +BLDU SCT040 BKN080 22/18 Q1000 NOSIG

時間: 06:53 (03:53 UTC)

予報

当レポートは5時間8分前の22:45(UTC)に作成
予報は25日の 00時(UTC)から 26日の 06時(UTC)まで有効
南東の風 20kt、最大30ktの突風を伴う
視程: 6000m
高度4000ftの雲は散在している
高度8000ftの千切れ雲あり
25日の 00時(UTC)から 25日の 09時(UTC)まで一時的に
視程: 2000m
高度3000ftの雲はほとんどない, 積乱雲.

TAF: OKBK 242245Z 2500/2606 14020G30KT 6000 SCT040 BKN080 TEMPO 2500/2509 2000 TSRA/BLDU FEW030CB

4,000以上の空港の気象観測と天気予報(METAR報とTAF報)

利用可能な観測所は地図上に黄色い丸と赤い丸で示す。

丸の上にカーソルを重ねると観測所名を参照できる。

次にクリックすると気象観測と天気予報を参照できる。

マップの切り替え:黒色「×」印の緑ボタンをクリックして拡大、「-」印の緑ボタンをクリックして縮小、緑色の三角印をクリックして隣りの地図に切り替え


METAR-TAF: